Estación Meteorológica Peña el Pijo (Robertgarden) [ 12/14/19 08:45:47 CET ]

Fecha Hora Presion(HPa) Temp (°C) Humedad % Rocio (°C) Viento ( m/s) Direccion Lluvia 1Hora(mm) Lluvia 24H(mm) LLuvia Total(mm)
2019-Aug-13 01:01:47 1012.700 20.1 71 14.7 0.4 SW     363.34
2019-Aug-13 02:02:07 1012.400 19.5 70 13.9         363.34
2019-Aug-13 03:01:44 1012.100 19.5 72 14.3         363.34
2019-Aug-13 04:01:40 1012.100 19.1 74 14.3         363.34
2019-Aug-13 05:01:36 1011.500 19.1 73 14.1         363.34
2019-Aug-13 06:01:40 1011.500 18.6 75 14.1         363.34
2019-Aug-13 07:01:44 1011.500 18.5 75 14.0         363.34
2019-Aug-13 08:01:52 1012.000 18.4 77 14.3         363.34
2019-Aug-13 09:01:50 1012.700 20.0 70 14.4 0.9 WSW     363.34
2019-Aug-13 10:01:43 1012.500 23.3 60 15.1         363.34
2019-Aug-13 11:01:59 1012.600 24.4 51 13.6         363.34
2019-Aug-13 12:01:44 1012.600 25.6 48 13.8         363.34
2019-Aug-13 13:01:41 1012.300 26.5 43 12.9         363.34
2019-Aug-13 14:01:51 1011.900 30.3 38 14.4         363.34
2019-Aug-13 15:01:44 1011.900 30.7 37 14.3         363.34
2019-Aug-13 16:01:49 1011.500 29.9 38 14.0         363.34
2019-Aug-13 17:01:39 1011.100 28.8 38 13.0         363.34
2019-Aug-13 18:02:00 1010.800 29.6 41 15.0 1.3 NNW     363.34
2019-Aug-13 19:01:48 1011.100 27.3 48 15.3         363.34
2019-Aug-13 20:01:51 1011.300 25.0 55 15.3 1.1 WSW     363.34
2019-Aug-13 21:01:44 1012.000 22.6 63 15.2         363.34
2019-Aug-13 22:01:42 1012.800 21.2 69 15.3         363.34
2019-Aug-13 23:01:42 1013.600 20.2 72 15.0         363.34

Temperatura Máxima:30°    Temperatura Mínima:18°
Presión Máxima:1013.600 Hpa    Presión Mínima:1010.800 Hpa


Volver